Garcia Miguel — CUGT9 — position and weather

sailwx.info

Track history (hours):
 
Tides and Currents Weather Stations Pressure Air Temp Water Temp Dewpoint Dewpoint Depression Visibility Wind Speed Wind Dir Waves Ship Positions

Garcia Miguel

Last reported at 2015-Mar-17 07:28 UTC. Time now 2015-Mar-27 06:54 UTC.
Position N 38°31' W 010°01'.
Warning: this ship's position is 9 days out of date.

Length 20 m.

Type: Fishing. MMSI: 263500286.

Date/timePositionNaut miles runAvg speedWind from/ knotsBaromVisibWave heightAir tempDewpointWater temp
2015-Mar-17 07:28N 38°31' W 010°01'7 5.9
2015-Mar-17 06:23N 38°37' W 009°57'5 5.8
2015-Mar-17 05:29N 38°42' W 009°54'6 5.9
2015-Mar-17 04:27N 38°47' W 009°51'  
2015-Mar-11 14:06N 38°18' W 012°11'4 7.5
2015-Mar-11 13:32N 38°16' W 012°16'8 7.4
2015-Mar-11 12:29N 38°13' W 012°25'15 7.6
2015-Mar-11 10:31N 38°07' W 012°43'78 7.7
2015-Mar-11 00:21N 37°31' W 014°10'16 7.5
2015-Mar-10 22:16N 37°23' W 014°27'5 5.8
2015-Mar-10 21:30N 37°20' W 014°31'16 7.7
2015-Mar-10 19:25N 37°12' W 014°48'7 7.7
2015-Mar-10 18:31N 37°09' W 014°56'9 7.6
2015-Mar-10 17:22N 37°05' W 015°06'19 6.1
2015-Mar-10 14:16N 36°54' W 015°25'4 6.1
2015-Mar-10 13:33N 36°51' W 015°29'18 6.1
2015-Mar-10 10:33N 36°42' W 015°49'7 6.0
2015-Mar-10 09:27N 36°39' W 015°56'6 6.2
2015-Mar-10 08:33N 36°35' W 016°01'24 2.7
2015-Mar-09 23:33N 36°48' W 015°37'8 7.6
2015-Mar-09 22:28N 36°44' W 015°46'15 7.7
2015-Mar-09 20:33N 36°37' W 016°02'8 7.6
2015-Mar-09 19:33N 36°33' W 016°10'9 7.7
2015-Mar-09 18:19N 36°29' W 016°20'6 7.6
2015-Mar-09 17:30N 36°26' W 016°27'11 7.6
2015-Mar-09 16:05N 36°21' W 016°39'3 6.3
2015-Mar-09 15:33N 36°19' W 016°43'6 5.9
2015-Mar-09 14:33N 36°16' W 016°49'6 5.4
2015-Mar-09 13:31N 36°15' W 016°56'22 3.1
2015-Mar-09 06:19N 36°34' W 017°10'17 6.2
2015-Mar-09 03:31N 36°26' W 016°50'9 6.2
2015-Mar-09 02:04N 36°23' W 016°40'3 6.0
2015-Mar-09 01:33N 36°21' W 016°36'5 4.8
2015-Mar-09 00:24N 36°20' W 016°43'  
Track history (hours):
 
Tides and Currents Weather Stations Pressure Air Temp Water Temp Dewpoint Dewpoint Depression Visibility Wind Speed Wind Dir Waves Ship Positions

Garcia Miguel

Last reported at 2015-Mar-17 07:28 UTC. Time now 2015-Mar-27 06:54 UTC.
Position N 38°31' W 010°01'.
Warning: this ship's position is 9 days out of date.

Length 20 m.

Type: Fishing. MMSI: 263500286.

Date/timePositionNaut miles runAvg speedWind from/ knotsBaromVisibWave heightAir tempDewpointWater temp
2015-Mar-17 07:28N 38°31' W 010°01'7 5.9
2015-Mar-17 06:23N 38°37' W 009°57'5 5.8
2015-Mar-17 05:29N 38°42' W 009°54'6 5.9
2015-Mar-17 04:27N 38°47' W 009°51'  
2015-Mar-11 14:06N 38°18' W 012°11'4 7.5
2015-Mar-11 13:32N 38°16' W 012°16'8 7.4
2015-Mar-11 12:29N 38°13' W 012°25'15 7.6
2015-Mar-11 10:31N 38°07' W 012°43'78 7.7
2015-Mar-11 00:21N 37°31' W 014°10'16 7.5
2015-Mar-10 22:16N 37°23' W 014°27'5 5.8
2015-Mar-10 21:30N 37°20' W 014°31'16 7.7
2015-Mar-10 19:25N 37°12' W 014°48'7 7.7
2015-Mar-10 18:31N 37°09' W 014°56'9 7.6
2015-Mar-10 17:22N 37°05' W 015°06'19 6.1
2015-Mar-10 14:16N 36°54' W 015°25'4 6.1
2015-Mar-10 13:33N 36°51' W 015°29'18 6.1
2015-Mar-10 10:33N 36°42' W 015°49'7 6.0
2015-Mar-10 09:27N 36°39' W 015°56'6 6.2
2015-Mar-10 08:33N 36°35' W 016°01'24 2.7
2015-Mar-09 23:33N 36°48' W 015°37'8 7.6
2015-Mar-09 22:28N 36°44' W 015°46'15 7.7
2015-Mar-09 20:33N 36°37' W 016°02'8 7.6
2015-Mar-09 19:33N 36°33' W 016°10'9 7.7
2015-Mar-09 18:19N 36°29' W 016°20'6 7.6
2015-Mar-09 17:30N 36°26' W 016°27'11 7.6
2015-Mar-09 16:05N 36°21' W 016°39'3 6.3
2015-Mar-09 15:33N 36°19' W 016°43'6 5.9
2015-Mar-09 14:33N 36°16' W 016°49'6 5.4
2015-Mar-09 13:31N 36°15' W 016°56'22 3.1
2015-Mar-09 06:19N 36°34' W 017°10'17 6.2
2015-Mar-09 03:31N 36°26' W 016°50'9 6.2
2015-Mar-09 02:04N 36°23' W 016°40'3 6.0
2015-Mar-09 01:33N 36°21' W 016°36'5 4.8
2015-Mar-09 00:24N 36°20' W 016°43'  

Dump ship's entire track history